createdAt,value
2023-04-07T00:03:07.823Z,65.00
2023-04-07T00:09:13.236Z,64.56
2023-04-07T00:15:15.141Z,64.78
2023-04-07T00:21:17.041Z,64.39
2023-04-07T00:27:18.939Z,64.18
2023-04-07T00:33:20.887Z,64.27
2023-04-07T00:39:22.787Z,63.82
2023-04-07T00:45:24.761Z,63.05
2023-04-07T00:51:27.182Z,63.31
2023-04-07T00:57:29.098Z,64.12
2023-04-07T01:04:05.194Z,63.51
2023-04-07T01:10:13.703Z,63.53
2023-04-07T01:16:35.259Z,63.55
2023-04-07T01:22:53.384Z,64.33
2023-04-07T01:29:22.350Z,64.83
2023-04-07T01:35:25.467Z,64.81
2023-04-07T01:41:28.599Z,65.13
2023-04-07T01:47:32.775Z,65.72
2023-04-07T01:53:37.897Z,66.71
2023-04-07T01:59:39.786Z,67.00
2023-04-07T02:05:42.600Z,67.25
2023-04-07T02:11:46.112Z,66.57
2023-04-07T02:17:54.675Z,66.70
2023-04-07T02:23:57.034Z,66.94
2023-04-07T02:29:59.007Z,67.13
2023-04-07T02:36:01.016Z,67.94
2023-04-07T02:42:02.923Z,68.16
2023-04-07T02:48:05.126Z,68.66
2023-04-07T02:54:07.010Z,69.13
2023-04-07T03:00:10.172Z,69.63
2023-04-07T03:06:12.078Z,70.12
2023-04-07T03:12:14.147Z,70.34
2023-04-07T03:18:16.067Z,71.56
2023-04-07T03:24:18.452Z,71.77
2023-04-07T03:30:20.785Z,71.96
2023-04-07T03:36:22.798Z,72.58
2023-04-07T03:42:24.754Z,72.59
2023-04-07T03:48:28.677Z,72.48
2023-04-07T03:54:31.506Z,72.51
2023-04-07T04:00:33.694Z,71.60
2023-04-07T04:06:35.809Z,71.81
2023-04-07T04:12:37.795Z,71.92
2023-04-07T04:18:39.709Z,72.28
2023-04-07T04:24:41.981Z,71.95
2023-04-07T04:30:43.904Z,69.76
2023-04-07T04:36:45.904Z,69.48
2023-04-07T04:42:47.816Z,70.15
2023-04-07T04:48:49.733Z,70.01
2023-04-07T04:54:51.657Z,71.41
2023-04-07T05:00:58.346Z,72.11
2023-04-07T05:07:00.546Z,73.24
2023-04-07T05:13:02.472Z,72.92
2023-04-07T05:19:04.424Z,73.48
2023-04-07T05:25:07.093Z,73.64
2023-04-07T05:31:09.472Z,73.20
2023-04-07T05:37:11.411Z,72.27
2023-04-07T05:43:13.298Z,70.25
2023-04-07T05:49:20.214Z,71.12
2023-04-07T05:55:22.838Z,69.73
2023-04-07T06:01:26.339Z,70.86
2023-04-07T06:07:28.873Z,70.55
2023-04-07T06:13:30.790Z,70.55
2023-04-07T06:19:33.345Z,68.62
2023-04-07T06:25:35.244Z,67.09
2023-04-07T06:31:37.531Z,67.59
2023-04-07T06:37:39.456Z,67.39
2023-04-07T06:43:41.512Z,66.71
2023-04-07T06:49:43.437Z,63.67
2023-04-07T06:55:45.478Z,59.13
2023-04-07T07:01:47.873Z,57.29
2023-04-07T07:07:51.674Z,58.26
2023-04-07T07:13:53.590Z,57.92
2023-04-07T07:19:55.624Z,59.03
2023-04-07T07:25:57.733Z,57.09
2023-04-07T07:31:59.628Z,57.16
2023-04-07T07:38:01.604Z,55.88
2023-04-07T07:44:03.530Z,55.83
2023-04-07T07:50:07.025Z,52.32
2023-04-07T07:56:08.939Z,51.38
2023-04-07T08:02:11.017Z,51.00
2023-04-07T08:08:13.097Z,47.24
2023-04-07T08:14:15.963Z,46.40
2023-04-07T08:20:17.944Z,46.00
2023-04-07T08:26:21.196Z,47.15
2023-04-07T08:32:23.153Z,46.33
2023-04-07T08:38:25.120Z,47.50
2023-04-07T08:44:29.875Z,46.55
2023-04-07T08:50:32.649Z,45.66
2023-04-07T08:56:34.753Z,44.25
2023-04-07T09:02:45.878Z,42.70
2023-04-07T09:08:47.859Z,41.61
2023-04-07T09:14:49.770Z,40.33
2023-04-07T09:21:04.024Z,39.65
2023-04-07T09:27:35.291Z,38.32
2023-04-07T09:33:37.798Z,37.12
2023-04-07T09:39:51.960Z,33.60
2023-04-07T09:46:11.611Z,30.31
2023-04-07T09:52:13.513Z,32.30
2023-04-07T09:58:16.820Z,27.32
2023-04-07T10:04:19.276Z,26.03
2023-04-07T10:10:21.335Z,23.19
2023-04-07T10:16:24.005Z,23.07
2023-04-07T10:22:28.096Z,23.59
2023-04-07T10:28:31.996Z,25.57
2023-04-07T10:34:54.755Z,25.56
2023-04-07T10:40:56.715Z,25.74
2023-04-07T10:47:01.570Z,26.84
2023-04-07T10:53:16.515Z,27.66
2023-04-07T10:59:19.381Z,24.83
2023-04-07T11:05:23.088Z,23.61
2023-04-07T11:11:42.453Z,23.65
2023-04-07T11:17:44.474Z,21.92
2023-04-07T11:23:47.832Z,22.21
2023-04-07T11:29:50.473Z,22.65
2023-04-07T11:36:01.856Z,23.84
2023-04-07T11:42:03.876Z,23.13
2023-04-07T11:48:06.124Z,22.21
2023-04-07T11:54:08.122Z,22.08
2023-04-07T12:00:12.799Z,20.31
2023-04-07T12:06:31.881Z,18.52
2023-04-07T12:12:33.771Z,17.70
2023-04-07T12:18:36.514Z,18.48
2023-04-07T12:24:39.369Z,16.95
2023-04-07T12:30:42.220Z,17.09
2023-04-07T12:36:44.734Z,15.61
2023-04-07T12:42:46.764Z,16.20
2023-04-07T12:48:49.330Z,16.38
2023-04-07T12:54:51.368Z,16.96
2023-04-07T13:00:53.687Z,16.63
2023-04-07T13:06:55.684Z,17.06
2023-04-07T13:12:57.603Z,16.44
2023-04-07T13:19:00.438Z,16.00
2023-04-07T13:25:02.458Z,15.37
2023-04-07T13:31:04.579Z,15.61
2023-04-07T13:37:07.049Z,15.24
2023-04-07T13:43:11.476Z,17.35
2023-04-07T13:49:14.926Z,16.35
2023-04-07T13:55:16.951Z,16.31
2023-04-07T14:01:18.938Z,16.47
2023-04-07T14:07:21.733Z,18.02
2023-04-07T14:13:23.706Z,17.69
2023-04-07T14:19:25.706Z,17.64
2023-04-07T14:25:27.724Z,16.25
2023-04-07T14:31:29.648Z,16.75
2023-04-07T14:37:31.560Z,15.67
2023-04-07T14:43:33.526Z,15.69
2023-04-07T14:49:35.440Z,19.85
2023-04-07T14:55:37.369Z,21.43
2023-04-07T15:01:39.910Z,21.05
2023-04-07T15:07:41.856Z,21.54
2023-04-07T15:13:43.748Z,21.76
2023-04-07T15:19:45.673Z,23.55
2023-04-07T15:25:50.040Z,23.86
2023-04-07T15:31:52.029Z,22.46
2023-04-07T15:37:54.113Z,20.31
2023-04-07T15:43:56.596Z,21.14
2023-04-07T15:49:58.468Z,22.84
2023-04-07T15:56:00.385Z,22.38
2023-04-07T16:02:02.457Z,24.71
2023-04-07T16:08:04.513Z,24.12
2023-04-07T16:14:08.954Z,23.98
2023-04-07T16:20:14.541Z,23.67
2023-04-07T16:26:16.526Z,24.33
2023-04-07T16:32:18.396Z,24.52
2023-04-07T16:38:20.322Z,25.36
2023-04-07T16:44:22.973Z,25.15
2023-04-07T16:50:24.956Z,24.53
2023-04-07T16:56:26.881Z,26.01
2023-04-07T17:02:28.917Z,25.87
2023-04-07T17:08:35.940Z,26.24
2023-04-07T17:14:37.885Z,27.37
2023-04-07T17:20:39.756Z,28.24
2023-04-07T17:26:48.446Z,29.64
2023-04-07T17:32:50.873Z,30.11
2023-04-07T17:38:52.904Z,31.94
2023-04-07T17:44:54.891Z,34.16
2023-04-07T17:50:58.461Z,36.20
2023-04-07T17:57:01.039Z,38.15
2023-04-07T18:03:03.924Z,39.92
2023-04-07T18:09:05.985Z,41.82
2023-04-07T18:15:09.399Z,43.30
2023-04-07T18:21:11.320Z,44.11
2023-04-07T18:27:13.301Z,46.50
2023-04-07T18:33:15.473Z,47.79
2023-04-07T18:39:17.539Z,50.92
2023-04-07T18:45:19.535Z,53.60
2023-04-07T18:51:21.866Z,54.76
2023-04-07T18:57:23.799Z,56.66
2023-04-07T19:03:26.500Z,59.45
2023-04-07T19:09:29.560Z,61.45
2023-04-07T19:15:34.248Z,63.49
2023-04-07T19:21:36.471Z,64.01
2023-04-07T19:27:39.505Z,64.40
2023-04-07T19:33:42.618Z,64.58
2023-04-07T19:40:01.790Z,64.71
2023-04-07T19:46:06.275Z,64.89
2023-04-07T19:52:08.305Z,65.82
2023-04-07T19:58:11.089Z,66.50
2023-04-07T20:04:14.180Z,66.17
2023-04-07T20:10:16.182Z,66.96
2023-04-07T20:16:18.191Z,67.80
2023-04-07T20:22:20.405Z,67.42
2023-04-07T20:28:22.901Z,69.67
2023-04-07T20:34:24.867Z,69.57
2023-04-07T20:40:27.628Z,71.14
2023-04-07T20:46:30.090Z,72.12
2023-04-07T20:52:32.047Z,71.71
2023-04-07T20:58:34.025Z,72.50
2023-04-07T21:04:36.895Z,72.16
2023-04-07T21:10:38.803Z,72.82
2023-04-07T21:16:40.769Z,73.08
2023-04-07T21:22:42.811Z,73.17
2023-04-07T21:28:44.731Z,72.27
2023-04-07T21:34:46.687Z,72.57
2023-04-07T21:40:48.668Z,71.52
2023-04-07T21:46:50.629Z,69.91
2023-04-07T21:52:53.798Z,70.71
2023-04-07T21:58:55.825Z,71.99
2023-04-07T22:04:57.878Z,71.80
2023-04-07T22:10:59.756Z,71.88
2023-04-07T22:17:01.723Z,72.41
2023-04-07T22:23:03.636Z,72.74
2023-04-07T22:29:05.527Z,71.50
2023-04-07T22:35:07.853Z,69.67
2023-04-07T22:41:09.772Z,71.14
2023-04-07T22:47:11.848Z,69.90
2023-04-07T22:53:13.907Z,68.22
2023-04-07T22:59:15.843Z,68.15
2023-04-07T23:05:17.819Z,68.19
2023-04-07T23:11:20.970Z,67.20
2023-04-07T23:17:24.054Z,67.11
2023-04-07T23:23:26.047Z,68.21
2023-04-07T23:29:27.997Z,68.65
2023-04-07T23:35:29.927Z,69.09
2023-04-07T23:41:32.138Z,69.91
2023-04-07T23:47:34.016Z,70.37
2023-04-07T23:53:35.950Z,72.09
2023-04-07T23:59:37.881Z,72.95
